CCGS Tanu — CGBY — position and weather

sailwx.info

Track history (hours):
 
Tides and Currents Weather Stations Pressure Air Temp Water Temp Dewpoint Dewpoint Depression Visibility Wind Speed Wind Dir Waves Ship Positions

CCGS Tanu (Canada)

Ship's website: http://www.ccg-gcc.gc.ca/vessels-navires/details_e.asp?id=M-5

Last reported at 2014-Nov-24 18:00 UTC. Time now 2014-Nov-24 22:17 UTC.
Position N 50°30' W 127°48'.

Length 54.5 m; beam 9.7 m; draft 3.7 m.

Type: SAR. MMSI: 316091000.

Wind from 110 at 4 knots

Barometer 1015.0 mb
Air temperature 10.3 ° C
Dewpoint 11.2 ° C

Date/timePositionNaut miles runAvg speedWind from/ knotsBaromVisibWave heightAir tempDewpointWater temp
2014-Nov-24 18:00N 50°30' W 127°48'0 0.0 110 / 41015.0 10.311.2
2014-Nov-24 12:00N 50°30' W 127°48'0 0.0 090 / 51019.3 7.7 8.5
2014-Nov-24 06:00N 50°30' W 127°48'0 0.0 130 / 31023.0 6.0 6.8
2014-Nov-24 00:00N 50°30' W 127°48'0 0.0 130 / 81020.6 7.2 7.8
2014-Nov-23 18:00N 50°30' W 127°48'0 0.0 210 / 41015.9 8.9 9.4
2014-Nov-23 12:00N 50°30' W 127°48'0 0.0 190 / 41010.5 8.6 9.3
2014-Nov-23 06:00N 50°30' W 127°48'0 0.0 160 / 31009.1 8.6 9.3
2014-Nov-23 00:00N 50°30' W 127°48'0 0.0 160 / 91010.6 7.2 7.9
2014-Nov-22 18:00N 50°30' W 127°48'0 0.0 110 / 51006.7 5.9 6.7
2014-Nov-22 12:00N 50°30' W 127°48'0 0.0 270 / 21000.8 5.9 6.6
2014-Nov-22 06:00N 50°30' W 127°48'0 0.0 170 / 7996.3 6.3 7.0
2014-Nov-22 00:00N 50°30' W 127°48'0 0.0 160 / 7992.7 8.0 8.7
2014-Nov-21 18:00N 50°30' W 127°48'0 0.0 050 / 13992.4 8.0 8.8
2014-Nov-21 12:00N 50°30' W 127°48'0 0.0 290 / 11000.9 8.5 9.3
2014-Nov-21 06:00N 50°30' W 127°48'0 0.0 180 / 11006.6 8.4 9.2
2014-Nov-21 00:00N 50°30' W 127°48'0 0.0 280 / 11006.7 10.311.1
2014-Nov-20 18:00N 50°30' W 127°48'0 0.0 300 / 11003.8 9.610.4
2014-Nov-20 12:00N 50°30' W 127°48'0 0.0 280 / 11002.6 9.2 9.7
2014-Nov-20 06:00N 50°30' W 127°48'0 0.0 1004.5 8.6 9.0
2014-Nov-20 00:00N 50°30' W 127°48'0 0.0 270 / 61006.5 10.210.5
2014-Nov-19 18:00N 50°30' W 127°48'0 0.0 330 / 51010.1 8.0 8.5
2014-Nov-19 12:00N 50°30' W 127°48'0 0.0 280 / 21012.9 6.8 7.4
2014-Nov-19 06:00N 50°30' W 127°48'0 0.0 090 / 11014.6 5.9 6.7
2014-Nov-19 00:00N 50°30' W 127°48'0 0.0 020 / 11016.5 8.2 9.0
2014-Nov-18 18:00N 50°30' W 127°48'0 0.0 1017.5 5.3 6.1
2014-Nov-18 12:00N 50°30' W 127°48'0 0.0 300 / 41018.4 5.1 5.7
2014-Nov-18 06:00N 50°30' W 127°48'0 0.0 090 / 11019.6 3.6 4.2
2014-Nov-18 00:00N 50°30' W 127°48'0 0.0 270 / 31022.8 5.8 6.3
2014-Nov-17 18:00N 50°30' W 127°48'0 0.0 090 / 11026.3 2.2 2.8
2014-Nov-17 12:00N 50°30' W 127°48'0 0.0 130 / 21027.8 -0.3 0.2
2014-Nov-17 06:00N 50°30' W 127°48'0 0.0 140 / 31029.2 -0.1 0.4
2014-Nov-17 00:00N 50°30' W 127°48'0 0.0 160 / 11030.0 3.8 4.2
2014-Nov-16 18:00N 50°30' W 127°48'0 0.0 150 / 31032.4 0.7
2014-Nov-16 12:00N 50°30' W 127°48'0 0.0 170 / 21033.9 -0.8-0.2
2014-Nov-16 06:00N 50°30' W 127°48'0 0.0 140 / 31033.6 -0.3 0.2
2014-Nov-16 00:00N 50°30' W 127°48'0 0.0 130 / 31031.8 2.6 3.0
2014-Nov-15 18:00N 50°30' W 127°48'0 0.0 140 / 21030.9 1.1 1.6
2014-Nov-15 12:00N 50°30' W 127°48'0 0.0 130 / 21028.3 -0.9-0.4
2014-Nov-15 10:00N 50°30' W 127°48'0 0.0 130 / 51027.8 -0.8-0.2
2014-Nov-15 09:00N 50°30' W 127°48'0 0.0 130 / 41027.6 -0.9-0.4
2014-Nov-15 08:00N 50°30' W 127°48'0 0.0 130 / 41026.8 -0.6-0.1
2014-Nov-15 07:00N 50°30' W 127°48'0 0.0 140 / 31025.9 -0.6-0.1
2014-Nov-15 06:00N 50°30' W 127°48'0 0.0 150 / 31025.3 0.1 0.6
2014-Nov-15 05:00N 50°30' W 127°48'0 0.0 160 / 31024.6 0.1 0.6
2014-Nov-15 04:00N 50°30' W 127°48'0 0.0 150 / 31024.2 0.2 0.6
2014-Nov-15 03:00N 50°30' W 127°48'0 0.0 150 / 51023.9 0.5 0.9
2014-Nov-15 02:00N 50°30' W 127°48'0 0.0 130 / 41023.2 1.0 1.4
2014-Nov-15 01:00N 50°30' W 127°48'0 0.0 130 / 51022.6 1.8 2.2
2014-Nov-15 00:00N 50°30' W 127°48'0 0.0 130 / 41022.3 2.0 2.4
2014-Nov-14 23:00N 50°30' W 127°48'0 0.0 200 / 21021.9 3.4 3.7
2014-Nov-14 22:00N 50°30' W 127°48'0 0.0 200 / 11021.7 5.1 5.4
2014-Nov-14 21:00N 50°30' W 127°48'0 0.0 290 / 31021.4 4.3 4.6
2014-Nov-14 20:00N 50°30' W 127°48'0 0.0 220 / 31021.5 3.1 3.4
2014-Nov-14 19:00N 50°30' W 127°48'0 0.0 250 / 11021.4 2.6 3.0
2014-Nov-14 18:00N 50°30' W 127°48'   140 / 21021.2 1.1 1.6
Track history (hours):
 
Tides and Currents Weather Stations Pressure Air Temp Water Temp Dewpoint Dewpoint Depression Visibility Wind Speed Wind Dir Waves Ship Positions

CCGS Tanu (Canada)

Ship's website: http://www.ccg-gcc.gc.ca/vessels-navires/details_e.asp?id=M-5

Last reported at 2014-Nov-24 18:00 UTC. Time now 2014-Nov-24 22:17 UTC.
Position N 50°30' W 127°48'.

Length 54.5 m; beam 9.7 m; draft 3.7 m.

Type: SAR. MMSI: 316091000.

Wind from 110 at 4 knots

Barometer 1015.0 mb
Air temperature 10.3 ° C
Dewpoint 11.2 ° C

Date/timePositionNaut miles runAvg speedWind from/ knotsBaromVisibWave heightAir tempDewpointWater temp
2014-Nov-24 18:00N 50°30' W 127°48'0 0.0 110 / 41015.0 10.311.2
2014-Nov-24 12:00N 50°30' W 127°48'0 0.0 090 / 51019.3 7.7 8.5
2014-Nov-24 06:00N 50°30' W 127°48'0 0.0 130 / 31023.0 6.0 6.8
2014-Nov-24 00:00N 50°30' W 127°48'0 0.0 130 / 81020.6 7.2 7.8
2014-Nov-23 18:00N 50°30' W 127°48'0 0.0 210 / 41015.9 8.9 9.4
2014-Nov-23 12:00N 50°30' W 127°48'0 0.0 190 / 41010.5 8.6 9.3
2014-Nov-23 06:00N 50°30' W 127°48'0 0.0 160 / 31009.1 8.6 9.3
2014-Nov-23 00:00N 50°30' W 127°48'0 0.0 160 / 91010.6 7.2 7.9
2014-Nov-22 18:00N 50°30' W 127°48'0 0.0 110 / 51006.7 5.9 6.7
2014-Nov-22 12:00N 50°30' W 127°48'0 0.0 270 / 21000.8 5.9 6.6
2014-Nov-22 06:00N 50°30' W 127°48'0 0.0 170 / 7996.3 6.3 7.0
2014-Nov-22 00:00N 50°30' W 127°48'0 0.0 160 / 7992.7 8.0 8.7
2014-Nov-21 18:00N 50°30' W 127°48'0 0.0 050 / 13992.4 8.0 8.8
2014-Nov-21 12:00N 50°30' W 127°48'0 0.0 290 / 11000.9 8.5 9.3
2014-Nov-21 06:00N 50°30' W 127°48'0 0.0 180 / 11006.6 8.4 9.2
2014-Nov-21 00:00N 50°30' W 127°48'0 0.0 280 / 11006.7 10.311.1
2014-Nov-20 18:00N 50°30' W 127°48'0 0.0 300 / 11003.8 9.610.4
2014-Nov-20 12:00N 50°30' W 127°48'0 0.0 280 / 11002.6 9.2 9.7
2014-Nov-20 06:00N 50°30' W 127°48'0 0.0 1004.5 8.6 9.0
2014-Nov-20 00:00N 50°30' W 127°48'0 0.0 270 / 61006.5 10.210.5
2014-Nov-19 18:00N 50°30' W 127°48'0 0.0 330 / 51010.1 8.0 8.5
2014-Nov-19 12:00N 50°30' W 127°48'0 0.0 280 / 21012.9 6.8 7.4
2014-Nov-19 06:00N 50°30' W 127°48'0 0.0 090 / 11014.6 5.9 6.7
2014-Nov-19 00:00N 50°30' W 127°48'0 0.0 020 / 11016.5 8.2 9.0
2014-Nov-18 18:00N 50°30' W 127°48'0 0.0 1017.5 5.3 6.1
2014-Nov-18 12:00N 50°30' W 127°48'0 0.0 300 / 41018.4 5.1 5.7
2014-Nov-18 06:00N 50°30' W 127°48'0 0.0 090 / 11019.6 3.6 4.2
2014-Nov-18 00:00N 50°30' W 127°48'0 0.0 270 / 31022.8 5.8 6.3
2014-Nov-17 18:00N 50°30' W 127°48'0 0.0 090 / 11026.3 2.2 2.8
2014-Nov-17 12:00N 50°30' W 127°48'0 0.0 130 / 21027.8 -0.3 0.2
2014-Nov-17 06:00N 50°30' W 127°48'0 0.0 140 / 31029.2 -0.1 0.4
2014-Nov-17 00:00N 50°30' W 127°48'0 0.0 160 / 11030.0 3.8 4.2
2014-Nov-16 18:00N 50°30' W 127°48'0 0.0 150 / 31032.4 0.7
2014-Nov-16 12:00N 50°30' W 127°48'0 0.0 170 / 21033.9 -0.8-0.2
2014-Nov-16 06:00N 50°30' W 127°48'0 0.0 140 / 31033.6 -0.3 0.2
2014-Nov-16 00:00N 50°30' W 127°48'0 0.0 130 / 31031.8 2.6 3.0
2014-Nov-15 18:00N 50°30' W 127°48'0 0.0 140 / 21030.9 1.1 1.6
2014-Nov-15 12:00N 50°30' W 127°48'0 0.0 130 / 21028.3 -0.9-0.4
2014-Nov-15 10:00N 50°30' W 127°48'0 0.0 130 / 51027.8 -0.8-0.2
2014-Nov-15 09:00N 50°30' W 127°48'0 0.0 130 / 41027.6 -0.9-0.4
2014-Nov-15 08:00N 50°30' W 127°48'0 0.0 130 / 41026.8 -0.6-0.1
2014-Nov-15 07:00N 50°30' W 127°48'0 0.0 140 / 31025.9 -0.6-0.1
2014-Nov-15 06:00N 50°30' W 127°48'0 0.0 150 / 31025.3 0.1 0.6
2014-Nov-15 05:00N 50°30' W 127°48'0 0.0 160 / 31024.6 0.1 0.6
2014-Nov-15 04:00N 50°30' W 127°48'0 0.0 150 / 31024.2 0.2 0.6
2014-Nov-15 03:00N 50°30' W 127°48'0 0.0 150 / 51023.9 0.5 0.9
2014-Nov-15 02:00N 50°30' W 127°48'0 0.0 130 / 41023.2 1.0 1.4
2014-Nov-15 01:00N 50°30' W 127°48'0 0.0 130 / 51022.6 1.8 2.2
2014-Nov-15 00:00N 50°30' W 127°48'0 0.0 130 / 41022.3 2.0 2.4
2014-Nov-14 23:00N 50°30' W 127°48'0 0.0 200 / 21021.9 3.4 3.7
2014-Nov-14 22:00N 50°30' W 127°48'0 0.0 200 / 11021.7 5.1 5.4
2014-Nov-14 21:00N 50°30' W 127°48'0 0.0 290 / 31021.4 4.3 4.6
2014-Nov-14 20:00N 50°30' W 127°48'0 0.0 220 / 31021.5 3.1 3.4
2014-Nov-14 19:00N 50°30' W 127°48'0 0.0 250 / 11021.4 2.6 3.0
2014-Nov-14 18:00N 50°30' W 127°48'   140 / 21021.2 1.1 1.6

Dump ship's entire track history